Barlby, United Kingdom
Current Conditions -  °F | °C
As of 8:50 AM on Wednesday 26 Nov 2014 (Local Time) from EGXU Reporting Station
Light Rain Light Rain  
Wind Chill: 40°   Ceiling: 3000
Heat Index: 43°   Visibility: 1.2mi
Dew Point: 41°   Wind: 5mph
Humidity: 93%   Direction: 330°NNW
Pressure: 29.97"   Gusts: NA
Location:  53.8°N, 1.04°W
Report Text: EGXU 260850Z 33004KT 2000 -RA SCT014 BKN030 OVC050 06/05 Q1015 YLO2 TEMPO 3000 SCT016 YLO1
Loading
Personal Weather Stations






























Interactive Weather Map New forecast layout! Learn more

10-Day Weather Forecast

Advertisements
Track Severe Weather on mobile